Time;durP1;ratioP1;P1;durP2;ratioP2;P2;SDS_P1;SDS_P2;PMS_P1;PMS_P2;Temp;Humidity;BMP_temperature;BMP_pressure;BME280_temperature;BME280_humidity;BME280_pressure;Samples;Min_cycle;Max_cycle;Signal;HPM_P1;HPM_P2
2023/08/25 00:01:12;;;;;;;13.77;10.35;;;;;;;25.74;69.82;99678.56;5118915;28;20362;-68
2023/08/25 00:03:37;;;;;;;13.85;10.25;;;;;;;25.86;69.27;99671.03;5119201;28;20043;-68
2023/08/25 00:06:02;;;;;;;11.77;9.50;;;;;;;25.87;69.44;99672.66;5119588;28;20035;-68
2023/08/25 00:08:28;;;;;;;14.40;10.48;;;;;;;25.86;68.80;99665.59;5119319;28;20039;-69
2023/08/25 00:10:53;;;;;;;14.18;10.32;;;;;;;25.89;69.16;99678.66;5119218;28;20031;-68
2023/08/25 00:13:20;;;;;;;13.68;11.07;;;;;;;25.90;68.65;99671.31;5119232;28;20035;-67
2023/08/25 00:15:45;;;;;;;12.70;10.20;;;;;;;25.90;66.77;99680.28;5118785;28;20259;-68
2023/08/25 00:18:11;;;;;;;11.73;9.77;;;;;;;25.90;66.41;99677.56;5118892;28;20047;-68
2023/08/25 00:20:36;;;;;;;10.80;9.02;;;;;;;25.88;67.14;99687.03;5119117;28;20035;-69
2023/08/25 00:23:02;;;;;;;13.45;10.55;;;;;;;25.79;66.99;99692.16;5119478;28;20211;-68
2023/08/25 00:25:29;;;;;;;12.65;9.93;;;;;;;25.63;68.73;99684.97;5119344;28;20035;-68
2023/08/25 00:27:55;;;;;;;13.68;10.93;;;;;;;25.38;69.77;99694.56;5119447;28;20046;-68
2023/08/25 00:30:20;;;;;;;13.65;10.85;;;;;;;25.21;70.13;99698.50;5119455;28;20039;-68
2023/08/25 00:32:45;;;;;;;14.00;10.77;;;;;;;24.89;70.44;99685.72;5118851;28;20046;-68
2023/08/25 00:35:11;;;;;;;14.18;10.90;;;;;;;24.80;70.97;99688.06;5118255;28;20040;-67
2023/08/25 00:37:36;;;;;;;15.07;10.73;;;;;;;24.48;71.28;99684.50;5118719;28;20037;-68
2023/08/25 00:40:02;;;;;;;15.55;11.20;;;;;;;24.61;71.31;99680.56;5118938;28;20244;-67
2023/08/25 00:42:28;;;;;;;12.55;10.80;;;;;;;24.65;70.90;99687.09;5119482;28;20245;-67
2023/08/25 00:44:53;;;;;;;15.27;10.38;;;;;;;24.61;70.34;99681.38;5118739;28;20044;-67
2023/08/25 00:47:19;;;;;;;14.75;10.45;;;;;;;24.59;71.19;99678.13;5119016;28;20036;-68
2023/08/25 00:49:46;;;;;;;13.40;9.50;;;;;;;24.16;71.86;99687.09;5118868;28;20043;-68
2023/08/25 00:52:14;;;;;;;12.77;9.80;;;;;;;23.84;73.21;99695.84;5118707;28;20039;-68
2023/08/25 00:54:40;;;;;;;13.98;10.23;;;;;;;23.85;73.78;99702.88;5118080;28;20085;-68
2023/08/25 00:57:05;;;;;;;12.82;10.18;;;;;;;23.89;73.64;99711.31;5119510;28;20039;-68
2023/08/25 00:59:32;;;;;;;14.93;10.73;;;;;;;23.89;73.33;99712.13;5119019;28;20464;-67
2023/08/25 01:01:57;;;;;;;14.18;10.90;;;;;;;23.88;74.79;99707.78;5118592;28;20062;-67
2023/08/25 01:04:23;;;;;;;14.40;10.57;;;;;;;23.79;74.67;99706.59;5118430;28;20283;-67
2023/08/25 01:06:48;;;;;;;14.02;11.32;;;;;;;23.71;75.72;99707.00;5118608;28;20043;-68
2023/08/25 01:09:15;;;;;;;16.27;11.27;;;;;;;23.68;75.83;99706.69;5118856;28;20039;-68
2023/08/25 01:11:49;;;;;;;14.75;10.80;;;;;;;23.79;75.20;99709.28;5119201;28;20053;-67
2023/08/25 01:14:34;;;;;;;14.38;10.60;;;;;;;23.83;74.71;99715.84;5118718;28;20038;-68
2023/08/25 01:17:32;;;;;;;12.70;10.05;;;;;;;23.77;75.02;99716.00;5118676;28;20043;-67
2023/08/25 01:20:01;;;;;;;12.55;9.75;;;;;;;23.67;75.42;99713.97;5118003;28;20050;-68
2023/08/25 01:22:51;;;;;;;12.95;10.32;;;;;;;23.65;75.61;99708.00;5118803;28;20095;-67
2023/08/25 01:25:30;;;;;;;12.80;10.32;;;;;;;23.67;75.69;99705.88;5118639;28;20040;-67
2023/08/25 01:28:00;;;;;;;14.40;9.85;;;;;;;23.63;75.01;99701.22;5118321;28;20070;-67
2023/08/25 01:30:27;;;;;;;12.38;10.32;;;;;;;23.65;75.58;99707.19;5118622;28;20047;-68
2023/08/25 01:32:57;;;;;;;16.63;11.40;;;;;;;23.74;75.45;99711.94;5117910;28;20047;-68
2023/08/25 01:35:29;;;;;;;13.18;9.75;;;;;;;23.79;75.18;99706.59;5118783;28;20043;-67
2023/08/25 01:38:04;;;;;;;13.98;10.65;;;;;;;23.87;74.51;99716.16;5118728;28;20042;-68
2023/08/25 01:40:35;;;;;;;12.07;10.60;;;;;;;23.93;74.45;99715.19;5118638;28;20467;-67
2023/08/25 01:43:02;;;;;;;11.88;9.32;;;;;;;23.89;73.96;99722.13;5118339;28;20268;-68
2023/08/25 01:45:28;;;;;;;13.45;10.65;;;;;;;23.95;73.48;99725.75;5117931;28;20067;-68
2023/08/25 01:47:56;;;;;;;14.10;10.75;;;;;;;23.98;73.08;99723.38;5118073;28;20031;-68
2023/08/25 01:50:22;;;;;;;15.45;9.90;;;;;;;23.80;73.35;99710.94;5118379;28;20040;-68
2023/08/25 01:52:49;;;;;;;13.32;11.20;;;;;;;23.59;74.71;99719.00;5118556;28;20091;-67
2023/08/25 01:55:14;;;;;;;14.82;11.18;;;;;;;23.41;76.04;99714.63;5118418;28;20082;-68
2023/08/25 01:57:40;;;;;;;14.50;10.63;;;;;;;23.50;75.69;99715.84;5117635;28;20032;-67
2023/08/25 02:00:06;;;;;;;12.88;10.85;;;;;;;23.64;75.07;99717.19;5117603;28;20084;-68
2023/08/25 02:02:31;;;;;;;14.63;10.63;;;;;;;23.77;74.35;99713.31;5118085;28;20039;-68
2023/08/25 02:04:56;;;;;;;14.13;10.63;;;;;;;23.72;75.18;99713.25;5118021;28;20035;-68
2023/08/25 02:07:23;;;;;;;15.63;11.15;;;;;;;23.54;75.76;99717.00;5119841;28;20031;-67
2023/08/25 02:09:48;;;;;;;15.43;11.57;;;;;;;23.63;75.89;99718.25;5121561;28;20032;-68
2023/08/25 02:12:14;;;;;;;15.10;10.98;;;;;;;23.62;75.93;99716.63;5122009;28;20039;-68
2023/08/25 02:14:39;;;;;;;15.85;12.45;;;;;;;23.60;75.52;99717.94;5121947;28;20039;-68
2023/08/25 02:17:04;;;;;;;14.93;11.75;;;;;;;23.39;76.47;99714.88;5121797;28;20036;-68
2023/08/25 02:19:30;;;;;;;15.35;11.18;;;;;;;23.21;77.28;99709.72;5121222;28;20044;-67
2023/08/25 02:21:55;;;;;;;17.20;12.13;;;;;;;23.13;78.39;99716.34;5121556;28;20047;-67
2023/08/25 02:24:21;;;;;;;16.05;12.18;;;;;;;23.36;78.01;99715.38;5121781;28;20048;-68
2023/08/25 02:26:46;;;;;;;14.02;12.10;;;;;;;23.59;77.48;99727.09;5121938;28;20264;-68
2023/08/25 02:29:12;;;;;;;16.95;12.55;;;;;;;23.79;76.82;99727.41;5121676;28;20318;-68
2023/08/25 02:31:37;;;;;;;14.95;11.90;;;;;;;23.91;75.76;99721.88;5120862;28;20039;-67
2023/08/25 02:34:02;;;;;;;15.45;12.27;;;;;;;24.01;75.63;99716.63;5121035;28;20241;-68
2023/08/25 02:36:28;;;;;;;16.45;12.18;;;;;;;24.15;74.70;99721.44;5121104;28;20359;-68
2023/08/25 02:38:53;;;;;;;14.82;12.07;;;;;;;24.22;74.33;99723.94;5120980;28;20042;-67
2023/08/25 02:41:19;;;;;;;16.42;12.45;;;;;;;24.31;74.00;99721.66;5120696;28;20050;-68
2023/08/25 02:43:44;;;;;;;15.35;12.18;;;;;;;24.38;73.55;99717.69;5120577;28;20080;-68
2023/08/25 02:46:10;;;;;;;14.98;12.18;;;;;;;24.47;73.29;99728.88;5120894;28;20072;-67
2023/08/25 02:48:35;;;;;;;14.50;12.65;;;;;;;24.53;72.72;99722.44;5121033;28;20035;-67
2023/08/25 02:51:01;;;;;;;15.38;12.00;;;;;;;24.56;72.76;99729.25;5120913;28;20041;-68
2023/08/25 02:53:26;;;;;;;17.90;12.32;;;;;;;24.62;71.62;99729.03;5120883;28;20046;-68
2023/08/25 02:55:52;;;;;;;16.08;12.48;;;;;;;24.38;71.43;99739.34;5121362;28;20061;-68
2023/08/25 02:58:17;;;;;;;13.02;11.50;;;;;;;24.22;71.98;99736.66;5120890;28;20217;-68
2023/08/25 03:00:42;;;;;;;15.07;11.77;;;;;;;24.24;71.69;99739.94;5120862;28;20047;-67
2023/08/25 03:03:08;;;;;;;15.98;11.82;;;;;;;24.09;71.82;99749.50;5120535;28;20213;-68
2023/08/25 03:05:33;;;;;;;16.00;12.95;;;;;;;23.74;73.63;99751.66;5120548;28;20065;-68
2023/08/25 03:07:59;;;;;;;16.67;13.18;;;;;;;23.75;73.30;99753.28;5120851;28;20081;-68
2023/08/25 03:10:24;;;;;;;15.93;13.15;;;;;;;23.71;73.71;99749.44;5120662;28;20080;-67
2023/08/25 03:12:50;;;;;;;19.42;12.27;;;;;;;23.71;73.79;99761.09;5120908;28;20109;-68
2023/08/25 03:15:16;;;;;;;17.23;13.93;;;;;;;23.71;74.30;99754.84;5120787;28;20032;-68
2023/08/25 03:17:41;;;;;;;15.38;12.32;;;;;;;23.66;75.00;99752.91;5119992;28;20043;-67
2023/08/25 03:20:07;;;;;;;16.20;12.60;;;;;;;23.68;75.29;99761.56;5120222;28;20136;-68
2023/08/25 03:22:33;;;;;;;18.70;13.02;;;;;;;23.77;75.67;99754.69;5120128;28;20035;-67
2023/08/25 03:24:58;;;;;;;15.60;12.48;;;;;;;23.90;74.19;99767.03;5120311;28;20035;-67
2023/08/25 03:27:24;;;;;;;18.52;12.93;;;;;;;23.87;74.85;99759.41;5120728;28;20039;-67
2023/08/25 03:29:49;;;;;;;16.98;12.82;;;;;;;23.97;73.97;99761.47;5120758;28;20027;-67
2023/08/25 03:32:14;;;;;;;22.60;12.43;;;;;;;24.05;72.88;99763.75;5120065;28;20268;-67
2023/08/25 03:34:40;;;;;;;14.55;12.13;;;;;;;24.09;72.19;99767.59;5120299;28;20043;-68
2023/08/25 03:37:07;;;;;;;18.90;12.43;;;;;;;24.06;72.07;99766.22;5120528;28;20305;-68
2023/08/25 03:39:32;;;;;;;17.42;12.68;;;;;;;24.08;72.66;99769.50;5120465;28;20051;-67
2023/08/25 03:41:58;;;;;;;15.35;12.50;;;;;;;24.05;72.83;99753.75;5120608;28;20400;-68
2023/08/25 03:44:23;;;;;;;15.82;12.57;;;;;;;24.09;72.26;99754.06;5120162;28;20052;-67
2023/08/25 03:46:49;;;;;;;22.45;12.88;;;;;;;24.15;72.13;99753.06;5119967;28;20362;-68
2023/08/25 03:49:14;;;;;;;18.48;12.05;;;;;;;24.18;73.48;99750.69;5119815;28;20044;-67
2023/08/25 03:51:40;;;;;;;19.08;12.40;;;;;;;24.13;73.27;99744.41;5119457;28;20626;-67
2023/08/25 03:54:08;;;;;;;23.05;12.80;;;;;;;24.23;73.06;99747.22;5119664;28;20050;-68
2023/08/25 03:56:33;;;;;;;21.33;12.43;;;;;;;24.25;73.07;99753.22;5119501;28;20327;-68
2023/08/25 03:58:59;;;;;;;21.35;12.70;;;;;;;24.17;73.05;99757.16;5119090;28;20044;-68
2023/08/25 04:01:24;;;;;;;18.33;12.30;;;;;;;24.23;72.66;99759.94;5119336;28;20042;-68
2023/08/25 04:03:50;;;;;;;17.80;12.40;;;;;;;24.19;71.46;99759.63;5118612;28;20137;-67
2023/08/25 04:06:15;;;;;;;18.13;11.80;;;;;;;23.74;73.37;99762.47;5120032;28;20039;-68
2023/08/25 04:08:41;;;;;;;23.35;13.70;;;;;;;23.63;74.08;99757.97;5119276;28;20031;-67
2023/08/25 04:11:06;;;;;;;18.73;12.95;;;;;;;23.71;74.24;99749.44;5119093;28;20032;-68
2023/08/25 04:13:32;;;;;;;21.33;13.27;;;;;;;23.83;74.47;99756.41;5119696;28;20047;-68
2023/08/25 04:15:58;;;;;;;20.98;13.25;;;;;;;23.93;74.85;99766.56;5119894;28;20260;-68
2023/08/25 04:18:25;;;;;;;21.98;14.77;;;;;;;23.95;73.46;99772.56;5119195;28;20322;-68
2023/08/25 04:20:51;;;;;;;20.67;12.85;;;;;;;23.95;73.46;99771.72;5118996;28;20080;-68
2023/08/25 04:23:16;;;;;;;20.80;12.65;;;;;;;23.96;74.01;99774.19;5118714;28;20036;-67
2023/08/25 04:25:42;;;;;;;20.73;12.35;;;;;;;23.91;74.38;99757.84;5119024;28;20034;-67
2023/08/25 04:28:08;;;;;;;24.10;13.02;;;;;;;24.08;74.22;99766.78;5119198;28;20225;-67
2023/08/25 04:30:34;;;;;;;20.63;13.07;;;;;;;24.20;74.08;99780.19;5118318;28;20024;-68
2023/08/25 04:32:59;;;;;;;23.20;13.90;;;;;;;24.16;74.37;99774.47;5119099;28;20042;-68
2023/08/25 04:35:25;;;;;;;23.13;13.90;;;;;;;24.18;74.60;99772.34;5118925;28;20138;-68
2023/08/25 04:37:50;;;;;;;22.30;14.60;;;;;;;24.27;74.71;99786.28;5119650;28;20058;-67
2023/08/25 04:40:20;;;;;;;27.52;15.27;;;;;;;24.29;74.58;99778.72;5119145;28;20337;-68
2023/08/25 04:42:45;;;;;;;29.60;14.88;;;;;;;24.12;74.81;99784.16;5119100;28;20401;-68
2023/08/25 04:45:12;;;;;;;24.33;14.02;;;;;;;24.27;74.02;99785.47;5118551;28;20052;-68
2023/08/25 04:47:38;;;;;;;34.05;14.85;;;;;;;24.26;73.87;99784.59;5118484;28;20036;-68
2023/08/25 04:50:07;;;;;;;23.00;14.02;;;;;;;24.24;74.76;99783.22;5118925;28;20042;-68
2023/08/25 04:52:34;;;;;;;22.30;14.13;;;;;;;24.25;74.83;99766.75;5118664;28;20255;-68
2023/08/25 04:54:59;;;;;;;19.23;13.93;;;;;;;24.33;75.15;99777.16;5118431;28;20067;-68
2023/08/25 04:57:25;;;;;;;21.45;14.52;;;;;;;24.37;75.13;99775.59;5118822;28;20091;-67
2023/08/25 04:59:50;;;;;;;25.58;15.45;;;;;;;24.46;75.32;99774.06;5118802;28;20333;-68
2023/08/25 05:02:17;;;;;;;18.70;14.52;;;;;;;24.49;75.05;99772.75;5118807;28;20039;-68
2023/08/25 05:04:42;;;;;;;20.60;15.00;;;;;;;24.72;74.71;99764.34;5117775;28;20040;-67
2023/08/25 05:07:08;;;;;;;21.45;14.52;;;;;;;24.98;74.02;99778.22;5119126;28;20047;-68
2023/08/25 05:09:33;;;;;;;21.85;13.88;;;;;;;25.05;73.13;99782.38;5118944;28;20201;-68
2023/08/25 05:11:59;;;;;;;21.77;14.90;;;;;;;25.23;72.27;99791.19;5118474;28;20073;-68
2023/08/25 05:14:24;;;;;;;20.85;14.32;;;;;;;25.52;71.17;99784.41;5118659;28;20051;-68
2023/08/25 05:16:50;;;;;;;21.10;14.43;;;;;;;25.66;70.53;99784.81;5119044;28;20124;-68
2023/08/25 05:19:15;;;;;;;17.95;14.45;;;;;;;25.82;69.80;99783.03;5118858;28;20054;-67
2023/08/25 05:21:40;;;;;;;19.75;14.80;;;;;;;25.96;69.18;99776.88;5118594;28;20043;-69
2023/08/25 05:24:16;;;;;;;18.85;14.23;;;;;;;26.15;69.00;99779.19;5119016;28;20116;-68
2023/08/25 05:26:43;;;;;;;34.78;21.88;;;;;;;26.22;69.03;99772.44;5100072;28;20299;-68
2023/08/25 05:29:08;;;;;;;44.38;26.95;;;;;;;26.33;68.92;99774.16;5118096;28;20031;-67
2023/08/25 05:31:34;;;;;;;31.52;21.98;;;;;;;26.43;67.98;99783.44;5118189;28;20034;-69
2023/08/25 05:33:59;;;;;;;26.25;18.05;;;;;;;26.63;67.45;99788.94;5117598;28;20058;-68
2023/08/25 05:36:25;;;;;;;21.20;14.73;;;;;;;26.83;66.53;99799.88;5118184;28;20045;-68
2023/08/25 05:38:50;;;;;;;27.80;16.02;;;;;;;27.00;64.39;99795.06;5118127;28;20044;-68
2023/08/25 05:41:16;;;;;;;20.48;13.48;;;;;;;27.17;64.27;99799.47;5120127;28;20043;-68
2023/08/25 05:43:41;;;;;;;19.15;14.95;;;;;;;27.28;64.20;99801.09;5122238;28;20042;-68
2023/08/25 05:46:06;;;;;;;21.50;14.30;;;;;;;27.48;62.97;99812.00;5122592;28;20043;-68
2023/08/25 05:48:32;;;;;;;16.25;13.23;;;;;;;27.60;62.01;99814.44;5122431;28;20043;-68
2023/08/25 05:50:57;;;;;;;20.55;13.38;;;;;;;27.56;62.57;99811.44;5122095;28;20032;-68
2023/08/25 05:53:23;;;;;;;16.58;13.20;;;;;;;27.72;61.90;99806.03;5122213;28;20048;-68
2023/08/25 05:55:50;;;;;;;16.85;13.80;;;;;;;27.85;61.15;99810.91;5122153;28;20045;-68
2023/08/25 05:58:15;;;;;;;14.23;12.65;;;;;;;28.01;60.59;99817.97;5122248;28;20031;-69
2023/08/25 06:00:42;;;;;;;14.88;13.07;;;;;;;28.14;60.20;99820.16;5121698;28;20141;-68
2023/08/25 06:03:08;;;;;;;18.70;13.85;;;;;;;28.34;60.07;99818.50;5121953;28;20024;-68
2023/08/25 06:05:33;;;;;;;16.63;12.50;;;;;;;28.40;59.29;99820.13;5121892;28;20125;-68
2023/08/25 06:07:59;;;;;;;17.52;13.68;;;;;;;28.52;58.92;99813.25;5122166;28;20028;-68
2023/08/25 06:10:26;;;;;;;15.82;13.00;;;;;;;28.69;56.81;99807.47;5121998;28;20032;-68
2023/08/25 06:12:52;;;;;;;18.67;12.95;;;;;;;28.63;56.66;99805.03;5121631;28;20034;-68
2023/08/25 06:15:17;;;;;;;16.27;12.57;;;;;;;28.82;56.47;99814.22;5121989;28;20036;-68
2023/08/25 06:17:43;;;;;;;16.23;12.23;;;;;;;29.02;54.97;99810.59;5121821;28;20327;-68
2023/08/25 06:20:09;;;;;;;18.52;14.07;;;;;;;28.97;55.90;99808.72;5121521;28;20043;-68
2023/08/25 06:22:43;;;;;;;17.85;13.85;;;;;;;29.05;55.71;99810.03;5120931;28;20047;-68
2023/08/25 06:25:09;;;;;;;22.20;14.13;;;;;;;29.19;54.61;99797.41;5116177;27;20674;-67
2023/08/25 06:27:35;;;;;;;17.98;13.45;;;;;;;29.36;54.14;99795.13;5121822;28;20458;-68
2023/08/25 06:30:02;;;;;;;20.17;13.90;;;;;;;29.58;53.10;99793.88;5121257;28;20052;-69
2023/08/25 06:32:28;;;;;;;17.50;13.00;;;;;;;29.74;52.77;99789.91;5121847;28;20059;-69
2023/08/25 06:34:54;;;;;;;16.60;13.35;;;;;;;29.75;53.03;99800.53;5121189;28;20661;-69
2023/08/25 06:37:20;;;;;;;16.50;13.50;;;;;;;29.79;51.65;99798.06;5121508;28;20055;-68
2023/08/25 06:39:47;;;;;;;15.77;13.38;;;;;;;29.91;51.27;99793.00;5120885;28;20044;-68
2023/08/25 06:42:13;;;;;;;17.02;12.82;;;;;;;30.13;51.37;99803.47;5121094;28;20130;-68
2023/08/25 06:44:39;;;;;;;14.50;12.45;;;;;;;30.27;50.35;99809.09;5120527;28;20051;-68
2023/08/25 06:47:04;;;;;;;16.80;12.23;;;;;;;30.37;50.83;99798.84;5121844;28;20042;-68
2023/08/25 06:49:30;;;;;;;16.40;12.73;;;;;;;30.50;50.12;99800.88;5120770;28;20039;-68
2023/08/25 06:51:55;;;;;;;15.52;12.20;;;;;;;30.52;49.77;99806.06;5120291;28;20035;-68
2023/08/25 06:54:21;;;;;;;17.75;12.75;;;;;;;30.63;49.67;99804.84;5120059;28;20043;-69
2023/08/25 06:56:47;;;;;;;14.32;12.63;;;;;;;30.81;48.76;99801.31;5120691;28;20044;-69
2023/08/25 06:59:14;;;;;;;14.02;12.52;;;;;;;30.95;48.39;99800.59;5119648;28;20040;-70
2023/08/25 07:01:40;;;;;;;15.10;12.48;;;;;;;31.02;48.67;99793.66;5120571;28;20039;-69
2023/08/25 07:04:05;;;;;;;13.25;11.93;;;;;;;31.13;48.40;99789.66;5121117;28;20102;-69
2023/08/25 07:06:31;;;;;;;14.05;12.48;;;;;;;31.17;48.35;99784.44;5120646;28;20036;-70
2023/08/25 07:08:56;;;;;;;13.77;12.30;;;;;;;31.13;48.47;99786.09;5119703;28;20414;-68
2023/08/25 07:11:22;;;;;;;14.10;12.25;;;;;;;31.28;47.30;99785.94;5120211;28;20031;-68
2023/08/25 07:13:48;;;;;;;15.30;12.50;;;;;;;31.40;46.38;99793.66;5119883;28;20036;-69
2023/08/25 07:16:13;;;;;;;14.57;13.07;;;;;;;31.36;46.46;99787.16;5120977;28;20034;-69
2023/08/25 07:18:39;;;;;;;13.90;12.50;;;;;;;31.27;47.24;99787.03;5120926;28;20337;-69
2023/08/25 07:21:04;;;;;;;13.93;12.52;;;;;;;31.39;47.19;99786.56;5119993;28;20348;-70
2023/08/25 07:23:30;;;;;;;15.25;12.23;;;;;;;31.59;47.34;99782.69;5101723;28;20036;-68
2023/08/25 07:25:55;;;;;;;17.00;12.43;;;;;;;31.76;46.57;99791.16;5120542;28;20233;-69
2023/08/25 07:28:21;;;;;;;13.38;11.98;;;;;;;31.89;46.16;99786.84;5120509;28;20031;-69
2023/08/25 07:30:46;;;;;;;12.98;11.40;;;;;;;31.91;46.19;99784.59;5120597;28;20040;-69
2023/08/25 07:33:12;;;;;;;14.15;12.70;;;;;;;31.95;45.59;99778.22;5119972;28;20035;-70
2023/08/25 07:35:38;;;;;;;15.80;13.15;;;;;;;31.95;45.97;99780.16;5119641;28;20035;-69
2023/08/25 07:38:04;;;;;;;14.63;12.95;;;;;;;32.04;45.66;99781.06;5118768;28;20039;-69
2023/08/25 07:40:31;;;;;;;15.40;12.98;;;;;;;32.23;45.13;99770.81;5118973;28;20039;-68
2023/08/25 07:43:03;;;;;;;18.45;12.98;;;;;;;32.31;45.33;99775.66;5118682;28;20036;-68
2023/08/25 07:45:30;;;;;;;14.98;13.43;;;;;;;32.28;45.05;99770.78;5118709;28;20052;-70
2023/08/25 07:47:58;;;;;;;15.60;13.20;;;;;;;32.36;44.96;99769.25;5118922;28;20118;-68
2023/08/25 07:50:24;;;;;;;14.57;12.98;;;;;;;32.19;45.49;99766.25;5119160;28;20341;-69
2023/08/25 07:52:50;;;;;;;14.25;12.65;;;;;;;32.32;44.90;99771.78;5119037;28;20042;-69
2023/08/25 07:55:16;;;;;;;15.27;12.82;;;;;;;32.13;44.58;99768.28;5118833;28;20043;-68
2023/08/25 07:57:42;;;;;;;16.25;13.45;;;;;;;32.15;44.97;99768.78;5119051;28;20023;-70
2023/08/25 08:00:12;;;;;;;16.23;14.25;;;;;;;32.15;45.12;99774.28;5118672;28;20046;-68
2023/08/25 08:02:37;;;;;;;14.85;12.82;;;;;;;32.41;45.90;99769.16;5119042;28;20030;-69
2023/08/25 08:05:03;;;;;;;15.55;13.95;;;;;;;32.56;45.92;99765.28;5117981;28;20325;-70
2023/08/25 08:07:29;;;;;;;15.35;13.77;;;;;;;32.55;45.09;99772.69;5118907;28;20382;-68
2023/08/25 08:09:54;;;;;;;15.60;14.00;;;;;;;32.60;44.89;99769.03;5118963;28;20047;-68
2023/08/25 08:12:20;;;;;;;16.27;14.57;;;;;;;32.77;44.23;99763.75;5119009;28;20053;-69
2023/08/25 08:14:45;;;;;;;16.45;13.52;;;;;;;32.92;44.54;99765.31;5119165;28;20080;-69
2023/08/25 08:17:10;;;;;;;14.98;13.30;;;;;;;32.99;43.85;99758.28;5119819;28;20228;-68
2023/08/25 08:19:36;;;;;;;14.07;12.48;;;;;;;33.10;44.34;99764.34;5118957;28;20039;-68
2023/08/25 08:22:03;;;;;;;17.60;13.82;;;;;;;33.05;43.18;99760.91;5119749;28;20043;-69
2023/08/25 08:24:28;;;;;;;16.27;13.55;;;;;;;33.05;42.83;99755.44;5118529;28;20110;-68
2023/08/25 08:26:54;;;;;;;17.33;13.70;;;;;;;33.12;43.90;99759.34;5119121;28;20072;-67
2023/08/25 08:29:20;;;;;;;15.52;13.38;;;;;;;33.12;42.41;99748.38;5118632;28;20059;-70
2023/08/25 08:31:46;;;;;;;19.90;15.05;;;;;;;33.05;42.90;99747.19;5118605;28;20044;-69
2023/08/25 08:34:11;;;;;;;15.82;14.00;;;;;;;33.19;43.65;99747.94;5119098;28;20038;-69
2023/08/25 08:36:37;;;;;;;16.75;13.60;;;;;;;33.21;43.33;99749.25;5118726;28;20031;-68
2023/08/25 08:39:04;;;;;;;16.48;13.98;;;;;;;33.22;43.06;99742.66;5119229;28;20039;-71
2023/08/25 08:41:30;;;;;;;15.13;13.63;;;;;;;33.30;42.67;99746.63;5118420;28;20061;-68
2023/08/25 08:43:59;;;;;;;16.92;13.82;;;;;;;33.23;41.68;99748.94;5118135;28;20077;-69
2023/08/25 08:46:27;;;;;;;16.63;13.70;;;;;;;33.03;42.05;99742.03;5118824;28;20054;-69
2023/08/25 08:48:54;;;;;;;14.82;12.55;;;;;;;33.20;42.50;99736.66;5118819;28;20066;-68
2023/08/25 08:51:20;;;;;;;16.13;13.50;;;;;;;33.36;43.79;99731.66;5118744;28;20125;-69
2023/08/25 08:53:47;;;;;;;15.82;13.52;;;;;;;33.42;42.77;99740.56;5117708;28;20051;-68
2023/08/25 08:56:14;;;;;;;16.63;13.90;;;;;;;33.49;43.08;99730.78;5118554;28;20330;-69
2023/08/25 08:58:39;;;;;;;16.52;14.38;;;;;;;33.51;41.55;99735.94;5118453;28;20039;-68
2023/08/25 09:01:05;;;;;;;15.43;13.15;;;;;;;33.46;41.41;99728.66;5118578;28;20047;-69
2023/08/25 09:03:36;;;;;;;15.57;13.45;;;;;;;33.43;42.92;99728.47;5118049;28;20051;-70
2023/08/25 09:06:03;;;;;;;16.90;13.95;;;;;;;33.47;41.53;99723.97;5117878;28;20032;-69
2023/08/25 09:08:32;;;;;;;15.88;12.98;;;;;;;33.49;41.34;99717.03;5117552;28;20036;-68
2023/08/25 09:11:04;;;;;;;16.80;13.50;;;;;;;33.55;42.64;99717.72;5117775;28;20413;-67
2023/08/25 09:13:33;;;;;;;13.82;12.52;;;;;;;33.50;41.79;99709.63;5117895;28;20032;-67
2023/08/25 09:15:59;;;;;;;17.13;13.85;;;;;;;33.59;41.19;99707.72;5119056;28;20035;-68
2023/08/25 09:18:34;;;;;;;14.50;12.80;;;;;;;33.39;40.48;99700.03;5122078;28;20047;-68
2023/08/25 09:21:00;;;;;;;16.50;13.05;;;;;;;33.20;41.29;99705.66;5122205;28;20047;-69
2023/08/25 09:23:25;;;;;;;15.60;13.73;;;;;;;33.08;41.99;99705.44;5121619;28;20107;-68
2023/08/25 09:25:51;;;;;;;14.90;13.40;;;;;;;33.23;41.71;99700.38;5122579;28;20257;-67
2023/08/25 09:28:17;;;;;;;19.80;14.65;;;;;;;33.29;42.73;99698.31;5122229;28;20076;-68
2023/08/25 09:30:44;;;;;;;14.93;12.57;;;;;;;33.34;41.58;99694.69;5122975;28;20035;-67
2023/08/25 09:33:15;;;;;;;15.35;13.25;;;;;;;33.17;41.84;99695.31;5122390;28;20270;-69
2023/08/25 09:35:42;;;;;;;13.60;12.05;;;;;;;32.93;40.58;99687.41;5122241;28;20035;-69
2023/08/25 09:38:19;;;;;;;15.70;13.30;;;;;;;32.73;42.01;99687.88;5122718;28;20053;-67
2023/08/25 09:40:46;;;;;;;14.57;13.07;;;;;;;32.67;41.86;99681.69;5122409;28;20058;-69
2023/08/25 09:43:11;;;;;;;132.15;28.42;;;;;;;32.64;42.38;99685.06;5122744;28;20036;-70
2023/08/25 09:45:39;;;;;;;15.60;13.32;;;;;;;32.55;43.15;99686.91;5122463;28;20108;-68
2023/08/25 09:48:07;;;;;;;13.68;12.27;;;;;;;32.54;42.65;99677.88;5121731;28;20059;-69
2023/08/25 09:50:37;;;;;;;14.25;12.75;;;;;;;32.47;43.17;99674.75;5121995;28;20031;-70
2023/08/25 09:53:05;;;;;;;16.35;11.95;;;;;;;32.46;42.67;99667.63;5120609;28;20050;-69
2023/08/25 09:55:31;;;;;;;14.90;12.93;;;;;;;32.34;42.75;99668.19;5120994;28;20144;-70
2023/08/25 09:57:57;;;;;;;13.98;12.13;;;;;;;32.42;42.48;99660.34;5121463;28;20068;-71
2023/08/25 10:00:22;;;;;;;16.40;13.02;;;;;;;32.42;43.17;99650.19;5121441;28;20039;-69
2023/08/25 10:02:49;;;;;;;14.60;12.63;;;;;;;32.42;44.22;99654.88;5121146;28;20195;-70
2023/08/25 10:05:17;;;;;;;14.38;12.90;;;;;;;32.30;44.00;99649.91;5121669;28;20106;-69
2023/08/25 10:07:43;;;;;;;15.52;12.43;;;;;;;32.34;44.29;99645.44;5121299;28;20043;-69
2023/08/25 10:10:10;;;;;;;13.10;11.75;;;;;;;32.43;43.31;99638.13;5122323;28;20044;-71
2023/08/25 10:12:37;;;;;;;13.73;11.07;;;;;;;32.49;43.31;99627.84;5121867;28;20051;-69
2023/08/25 10:15:08;;;;;;;13.20;11.90;;;;;;;32.31;42.31;99637.84;5121348;28;20043;-69
2023/08/25 10:17:35;;;;;;;12.77;11.48;;;;;;;32.45;42.77;99641.34;5121610;28;20028;-71
2023/08/25 10:20:05;;;;;;;15.05;11.43;;;;;;;32.42;42.95;99638.41;5120914;28;20054;-67
2023/08/25 10:22:33;;;;;;;12.00;10.80;;;;;;;32.44;41.62;99639.72;5136554;27;20368;-68
2023/08/25 10:25:03;;;;;;;11.60;10.50;;;;;;;32.44;41.34;99628.78;5120188;28;20341;-68
2023/08/25 10:27:30;;;;;;;12.90;10.80;;;;;;;32.44;41.24;99631.50;5119786;28;20032;-69
2023/08/25 10:29:58;;;;;;;12.95;11.65;;;;;;;32.42;41.44;99625.53;5120169;28;20115;-69
2023/08/25 10:32:23;;;;;;;13.20;11.43;;;;;;;32.41;42.12;99620.34;5120667;28;20044;-69
2023/08/25 10:34:53;;;;;;;13.45;11.07;;;;;;;32.49;41.68;99620.44;5120436;28;20069;-70
2023/08/25 10:37:25;;;;;;;11.55;10.35;;;;;;;32.63;41.77;99618.44;5120407;28;20245;-69
2023/08/25 10:39:55;;;;;;;11.48;10.38;;;;;;;32.66;40.89;99608.78;5119984;28;20249;-68
2023/08/25 10:42:32;;;;;;;11.70;10.18;;;;;;;32.75;40.78;99606.91;5120040;28;20043;-68
2023/08/25 10:45:24;;;;;;;12.60;10.32;;;;;;;32.83;40.60;99606.19;5119601;28;20096;-68
2023/08/25 10:47:51;;;;;;;10.65;9.55;;;;;;;32.83;39.95;99597.16;5117230;28;20161;-67
2023/08/25 10:50:22;;;;;;;10.30;9.30;;;;;;;32.90;39.67;99597.53;5121121;28;20333;-68
2023/08/25 10:52:51;;;;;;;10.52;9.43;;;;;;;32.89;38.73;99598.66;5121239;28;20038;-68
2023/08/25 10:55:30;;;;;;;10.30;9.20;;;;;;;32.88;38.70;99595.09;5120944;28;20316;-68
2023/08/25 10:58:04;;;;;;;10.52;9.27;;;;;;;32.84;38.99;99596.84;5120421;28;20195;-69
2023/08/25 11:00:33;;;;;;;9.48;8.48;;;;;;;32.87;38.43;99593.47;5119951;28;20133;-68
2023/08/25 11:03:01;;;;;;;9.90;8.68;;;;;;;32.93;37.36;99596.91;5119645;28;20039;-68
2023/08/25 11:05:28;;;;;;;10.75;9.60;;;;;;;32.95;38.32;99589.16;5120069;28;20050;-67
2023/08/25 11:07:54;;;;;;;10.30;9.23;;;;;;;33.03;37.43;99590.34;5119536;28;20035;-68
2023/08/25 11:10:27;;;;;;;9.25;8.25;;;;;;;32.96;37.01;99586.13;5119907;28;20248;-68
2023/08/25 11:12:54;;;;;;;10.95;9.63;;;;;;;32.98;37.52;99581.13;5119958;28;20036;-68
2023/08/25 11:15:22;;;;;;;9.25;8.45;;;;;;;32.92;36.72;99576.91;5101260;28;20086;-68